aviador You're here:

YTRE Decoded Metar

TAREE AIRPORT in _UNIDENTIFIED
Report Time2017-11-21 05:00:00
UTC Time2017-11-21 06:02:08
Flight Rules vfr VFR
Wind140° at 11 kt
W.Decomp.*RWY 04: 0.4 kt HW 11.0 kt RCW
W.Rank140° ranks 26
Current wind is above 140° avg. (8.3)
Visibility9999 m
Phenomena:N/A
Clouds:N/A
Expected CloudBase > 2,800 ft AGL from Temp-Dew spread
CeilingNone
Temp21°C (ISA +6)
Dew Point14°C (64% RH)
AAT18.3°C
QNH1021 hPa
Density Alt692 ft
Elevation39 ft
Report Wrong Elevation
Raw Report
YTRE 210500Z AUTO 14011KT 9999 // NCD 21/14 Q1021=

Extra information for YTRE:More info

Metar Taf Metar & Taf Last 4 Metars F.Rules Stats Wind Profile Meteogram Temp Stats Airport Information Weather charts Add Link Nearby VenuesMetar ALERT Operation Metar Decoded Social comments